sensor_id;sensor_type;location;lat;lon;timestamp;P1;durP1;ratioP1;P2;durP2;ratioP2
57989;SDS011;58373;51.824;5.564;2022-08-19T00:02:02;19.63;;;17.92;;
57989;SDS011;58373;51.824;5.564;2022-08-19T00:04:30;18.58;;;16.98;;
57989;SDS011;58373;51.824;5.564;2022-08-19T00:06:57;19.08;;;17.48;;
57989;SDS011;58373;51.824;5.564;2022-08-19T00:09:24;18.67;;;17.08;;
57989;SDS011;58373;51.824;5.564;2022-08-19T00:11:51;20.08;;;18.38;;
57989;SDS011;58373;51.824;5.564;2022-08-19T00:14:17;20.52;;;18.83;;
57989;SDS011;58373;51.824;5.564;2022-08-19T00:16:44;20.77;;;19.08;;
57989;SDS011;58373;51.824;5.564;2022-08-19T00:19:11;19.83;;;18.13;;
57989;SDS011;58373;51.824;5.564;2022-08-19T00:21:37;19.73;;;18.02;;
57989;SDS011;58373;51.824;5.564;2022-08-19T00:24:04;19.77;;;17.95;;
57989;SDS011;58373;51.824;5.564;2022-08-19T00:26:34;19.05;;;17.45;;
57989;SDS011;58373;51.824;5.564;2022-08-19T00:29:00;18.90;;;17.40;;
57989;SDS011;58373;51.824;5.564;2022-08-19T00:31:26;22.05;;;20.00;;
57989;SDS011;58373;51.824;5.564;2022-08-19T00:33:53;22.52;;;20.65;;
57989;SDS011;58373;51.824;5.564;2022-08-19T00:36:18;23.67;;;21.80;;
57989;SDS011;58373;51.824;5.564;2022-08-19T00:38:44;22.10;;;20.30;;
57989;SDS011;58373;51.824;5.564;2022-08-19T00:41:15;24.05;;;21.92;;
57989;SDS011;58373;51.824;5.564;2022-08-19T00:43:43;22.50;;;20.70;;
57989;SDS011;58373;51.824;5.564;2022-08-19T00:46:21;22.70;;;20.73;;
57989;SDS011;58373;51.824;5.564;2022-08-19T00:48:46;23.38;;;21.38;;
57989;SDS011;58373;51.824;5.564;2022-08-19T00:51:11;23.40;;;21.48;;
57989;SDS011;58373;51.824;5.564;2022-08-19T00:53:37;24.23;;;22.20;;
57989;SDS011;58373;51.824;5.564;2022-08-19T00:56:02;24.80;;;22.70;;
57989;SDS011;58373;51.824;5.564;2022-08-19T00:58:32;24.17;;;22.10;;
57989;SDS011;58373;51.824;5.564;2022-08-19T01:01:00;25.05;;;23.05;;
57989;SDS011;58373;51.824;5.564;2022-08-19T01:03:26;25.23;;;23.13;;
57989;SDS011;58373;51.824;5.564;2022-08-19T01:05:52;25.85;;;23.75;;
57989;SDS011;58373;51.824;5.564;2022-08-19T01:08:19;27.00;;;24.90;;
57989;SDS011;58373;51.824;5.564;2022-08-19T01:10:47;28.52;;;26.13;;
57989;SDS011;58373;51.824;5.564;2022-08-19T01:13:19;27.70;;;25.50;;
57989;SDS011;58373;51.824;5.564;2022-08-19T01:15:48;29.05;;;26.70;;
57989;SDS011;58373;51.824;5.564;2022-08-19T01:18:20;27.80;;;25.60;;
57989;SDS011;58373;51.824;5.564;2022-08-19T01:20:46;27.73;;;25.42;;
57989;SDS011;58373;51.824;5.564;2022-08-19T01:23:12;27.85;;;25.45;;
57989;SDS011;58373;51.824;5.564;2022-08-19T01:25:41;26.65;;;24.52;;
57989;SDS011;58373;51.824;5.564;2022-08-19T01:28:20;27.10;;;24.90;;
57989;SDS011;58373;51.824;5.564;2022-08-19T01:30:51;27.35;;;25.15;;
57989;SDS011;58373;51.824;5.564;2022-08-19T01:33:17;28.13;;;25.95;;
57989;SDS011;58373;51.824;5.564;2022-08-19T01:35:44;30.00;;;27.63;;
57989;SDS011;58373;51.824;5.564;2022-08-19T01:38:19;28.42;;;26.23;;
57989;SDS011;58373;51.824;5.564;2022-08-19T01:40:49;27.75;;;25.55;;
57989;SDS011;58373;51.824;5.564;2022-08-19T01:43:15;26.88;;;24.67;;
57989;SDS011;58373;51.824;5.564;2022-08-19T01:45:40;27.00;;;24.88;;
57989;SDS011;58373;51.824;5.564;2022-08-19T01:48:08;27.08;;;24.88;;
57989;SDS011;58373;51.824;5.564;2022-08-19T01:50:34;25.45;;;23.38;;
57989;SDS011;58373;51.824;5.564;2022-08-19T01:53:01;26.40;;;24.30;;
57989;SDS011;58373;51.824;5.564;2022-08-19T01:57:55;27.00;;;24.80;;
57989;SDS011;58373;51.824;5.564;2022-08-19T02:00:23;27.05;;;24.83;;
57989;SDS011;58373;51.824;5.564;2022-08-19T02:02:52;27.48;;;25.17;;
57989;SDS011;58373;51.824;5.564;2022-08-19T02:05:18;27.73;;;25.42;;
57989;SDS011;58373;51.824;5.564;2022-08-19T02:07:45;28.10;;;25.80;;
57989;SDS011;58373;51.824;5.564;2022-08-19T02:10:13;28.48;;;26.17;;
57989;SDS011;58373;51.824;5.564;2022-08-19T02:12:40;27.40;;;25.23;;
57989;SDS011;58373;51.824;5.564;2022-08-19T02:15:06;29.50;;;27.10;;
57989;SDS011;58373;51.824;5.564;2022-08-19T02:17:32;29.70;;;27.30;;
57989;SDS011;58373;51.824;5.564;2022-08-19T02:19:58;31.15;;;28.45;;
57989;SDS011;58373;51.824;5.564;2022-08-19T02:22:23;31.75;;;29.25;;
57989;SDS011;58373;51.824;5.564;2022-08-19T02:24:53;32.85;;;30.15;;
57989;SDS011;58373;51.824;5.564;2022-08-19T02:27:20;33.00;;;30.25;;
57989;SDS011;58373;51.824;5.564;2022-08-19T02:29:46;30.95;;;28.42;;
57989;SDS011;58373;51.824;5.564;2022-08-19T02:32:14;30.20;;;27.77;;
57989;SDS011;58373;51.824;5.564;2022-08-19T02:34:40;29.95;;;27.55;;
57989;SDS011;58373;51.824;5.564;2022-08-19T02:37:06;29.02;;;26.48;;
57989;SDS011;58373;51.824;5.564;2022-08-19T02:39:51;28.50;;;26.08;;
57989;SDS011;58373;51.824;5.564;2022-08-19T02:42:17;27.85;;;25.65;;
57989;SDS011;58373;51.824;5.564;2022-08-19T02:44:42;27.25;;;24.95;;
57989;SDS011;58373;51.824;5.564;2022-08-19T02:47:07;25.00;;;22.90;;
57989;SDS011;58373;51.824;5.564;2022-08-19T02:49:34;21.98;;;20.05;;
57989;SDS011;58373;51.824;5.564;2022-08-19T02:52:00;17.48;;;16.00;;
57989;SDS011;58373;51.824;5.564;2022-08-19T02:54:26;14.73;;;13.50;;
57989;SDS011;58373;51.824;5.564;2022-08-19T02:56:52;14.85;;;13.50;;
57989;SDS011;58373;51.824;5.564;2022-08-19T02:59:18;14.25;;;13.05;;
57989;SDS011;58373;51.824;5.564;2022-08-19T03:01:43;15.38;;;14.07;;
57989;SDS011;58373;51.824;5.564;2022-08-19T03:04:11;16.25;;;14.85;;
57989;SDS011;58373;51.824;5.564;2022-08-19T03:06:40;17.38;;;15.98;;
57989;SDS011;58373;51.824;5.564;2022-08-19T03:09:06;19.20;;;17.60;;
57989;SDS011;58373;51.824;5.564;2022-08-19T03:11:32;20.80;;;19.08;;
57989;SDS011;58373;51.824;5.564;2022-08-19T03:13:59;21.35;;;19.55;;
57989;SDS011;58373;51.824;5.564;2022-08-19T03:16:26;21.40;;;19.63;;
57989;SDS011;58373;51.824;5.564;2022-08-19T03:18:55;20.83;;;19.15;;
57989;SDS011;58373;51.824;5.564;2022-08-19T03:21:22;22.17;;;20.38;;
57989;SDS011;58373;51.824;5.564;2022-08-19T03:23:49;24.33;;;22.35;;
57989;SDS011;58373;51.824;5.564;2022-08-19T03:26:15;23.75;;;21.85;;
57989;SDS011;58373;51.824;5.564;2022-08-19T03:28:41;23.08;;;21.20;;
57989;SDS011;58373;51.824;5.564;2022-08-19T03:31:09;22.38;;;20.58;;
57989;SDS011;58373;51.824;5.564;2022-08-19T03:33:37;22.45;;;20.52;;
57989;SDS011;58373;51.824;5.564;2022-08-19T03:38:29;22.60;;;20.80;;
57989;SDS011;58373;51.824;5.564;2022-08-19T03:40:54;22.83;;;21.00;;
57989;SDS011;58373;51.824;5.564;2022-08-19T03:43:20;22.65;;;20.75;;
57989;SDS011;58373;51.824;5.564;2022-08-19T03:45:46;23.88;;;21.98;;
57989;SDS011;58373;51.824;5.564;2022-08-19T03:48:13;23.60;;;21.70;;
57989;SDS011;58373;51.824;5.564;2022-08-19T03:50:40;22.80;;;21.02;;
57989;SDS011;58373;51.824;5.564;2022-08-19T03:53:05;21.35;;;19.55;;
57989;SDS011;58373;51.824;5.564;2022-08-19T03:55:33;22.50;;;20.70;;
57989;SDS011;58373;51.824;5.564;2022-08-19T03:57:59;20.38;;;18.67;;
57989;SDS011;58373;51.824;5.564;2022-08-19T04:00:24;21.00;;;19.30;;
57989;SDS011;58373;51.824;5.564;2022-08-19T04:02:49;21.10;;;19.40;;
57989;SDS011;58373;51.824;5.564;2022-08-19T04:05:15;22.02;;;20.33;;
57989;SDS011;58373;51.824;5.564;2022-08-19T04:07:40;20.70;;;19.00;;
57989;SDS011;58373;51.824;5.564;2022-08-19T04:10:06;19.88;;;18.27;;
57989;SDS011;58373;51.824;5.564;2022-08-19T04:12:31;19.92;;;18.35;;
57989;SDS011;58373;51.824;5.564;2022-08-19T04:14:57;19.88;;;18.17;;
57989;SDS011;58373;51.824;5.564;2022-08-19T04:17:23;19.55;;;17.95;;
57989;SDS011;58373;51.824;5.564;2022-08-19T04:19:49;20.48;;;18.77;;
57989;SDS011;58373;51.824;5.564;2022-08-19T04:22:14;16.88;;;15.48;;
57989;SDS011;58373;51.824;5.564;2022-08-19T04:24:39;15.02;;;13.82;;
57989;SDS011;58373;51.824;5.564;2022-08-19T04:27:05;13.88;;;12.77;;
57989;SDS011;58373;51.824;5.564;2022-08-19T04:29:31;15.88;;;14.68;;
57989;SDS011;58373;51.824;5.564;2022-08-19T04:31:57;14.93;;;13.73;;
57989;SDS011;58373;51.824;5.564;2022-08-19T04:34:24;15.30;;;14.10;;
57989;SDS011;58373;51.824;5.564;2022-08-19T04:36:54;15.85;;;14.55;;
57989;SDS011;58373;51.824;5.564;2022-08-19T04:39:23;16.35;;;15.05;;
57989;SDS011;58373;51.824;5.564;2022-08-19T04:42:10;17.88;;;16.40;;
57989;SDS011;58373;51.824;5.564;2022-08-19T04:44:54;18.02;;;16.52;;
57989;SDS011;58373;51.824;5.564;2022-08-19T04:47:19;17.40;;;15.90;;
57989;SDS011;58373;51.824;5.564;2022-08-19T04:49:44;16.58;;;15.25;;
57989;SDS011;58373;51.824;5.564;2022-08-19T04:52:10;14.95;;;13.65;;
57989;SDS011;58373;51.824;5.564;2022-08-19T04:54:35;14.10;;;12.90;;
57989;SDS011;58373;51.824;5.564;2022-08-19T04:57:01;14.82;;;13.55;;
57989;SDS011;58373;51.824;5.564;2022-08-19T04:59:26;14.98;;;13.75;;
57989;SDS011;58373;51.824;5.564;2022-08-19T05:01:51;15.55;;;14.25;;
57989;SDS011;58373;51.824;5.564;2022-08-19T05:04:18;15.00;;;13.70;;
57989;SDS011;58373;51.824;5.564;2022-08-19T05:06:45;16.38;;;14.98;;
57989;SDS011;58373;51.824;5.564;2022-08-19T05:09:12;16.47;;;15.07;;
57989;SDS011;58373;51.824;5.564;2022-08-19T05:11:39;17.98;;;16.40;;
57989;SDS011;58373;51.824;5.564;2022-08-19T05:14:08;17.85;;;16.35;;
57989;SDS011;58373;51.824;5.564;2022-08-19T05:16:34;20.08;;;18.38;;
57989;SDS011;58373;51.824;5.564;2022-08-19T05:19:00;22.15;;;20.15;;
57989;SDS011;58373;51.824;5.564;2022-08-19T05:21:44;19.90;;;18.17;;
57989;SDS011;58373;51.824;5.564;2022-08-19T05:24:28;24.65;;;22.42;;
57989;SDS011;58373;51.824;5.564;2022-08-19T05:26:55;28.15;;;25.65;;
57989;SDS011;58373;51.824;5.564;2022-08-19T05:29:24;27.48;;;25.00;;
57989;SDS011;58373;51.824;5.564;2022-08-19T05:31:52;28.90;;;26.40;;
57989;SDS011;58373;51.824;5.564;2022-08-19T05:34:19;32.25;;;29.13;;
57989;SDS011;58373;51.824;5.564;2022-08-19T05:36:47;31.67;;;28.95;;
57989;SDS011;58373;51.824;5.564;2022-08-19T05:39:15;33.28;;;30.33;;
57989;SDS011;58373;51.824;5.564;2022-08-19T05:41:44;34.00;;;30.90;;
57989;SDS011;58373;51.824;5.564;2022-08-19T05:44:11;37.57;;;34.17;;
57989;SDS011;58373;51.824;5.564;2022-08-19T05:46:37;37.83;;;34.35;;
57989;SDS011;58373;51.824;5.564;2022-08-19T05:49:05;38.70;;;35.20;;
57989;SDS011;58373;51.824;5.564;2022-08-19T05:51:32;39.25;;;35.65;;
57989;SDS011;58373;51.824;5.564;2022-08-19T05:53:59;41.33;;;37.47;;
57989;SDS011;58373;51.824;5.564;2022-08-19T05:56:25;42.70;;;38.63;;
57989;SDS011;58373;51.824;5.564;2022-08-19T05:58:51;43.83;;;39.55;;
57989;SDS011;58373;51.824;5.564;2022-08-19T06:01:20;46.47;;;42.00;;
57989;SDS011;58373;51.824;5.564;2022-08-19T06:03:45;48.78;;;43.83;;
57989;SDS011;58373;51.824;5.564;2022-08-19T06:06:13;49.80;;;44.70;;
57989;SDS011;58373;51.824;5.564;2022-08-19T06:08:39;52.30;;;46.72;;
57989;SDS011;58373;51.824;5.564;2022-08-19T06:11:39;51.45;;;46.15;;
57989;SDS011;58373;51.824;5.564;2022-08-19T06:14:02;56.45;;;49.45;;
57989;SDS011;58373;51.824;5.564;2022-08-19T06:16:30;55.47;;;49.47;;
57989;SDS011;58373;51.824;5.564;2022-08-19T06:18:56;57.58;;;50.03;;
57989;SDS011;58373;51.824;5.564;2022-08-19T06:21:26;57.80;;;51.47;;
57989;SDS011;58373;51.824;5.564;2022-08-19T06:26:19;55.75;;;49.72;;
57989;SDS011;58373;51.824;5.564;2022-08-19T06:28:46;57.08;;;50.92;;
57989;SDS011;58373;51.824;5.564;2022-08-19T06:31:16;57.38;;;51.15;;
57989;SDS011;58373;51.824;5.564;2022-08-19T06:33:43;57.00;;;50.97;;
57989;SDS011;58373;51.824;5.564;2022-08-19T06:38:56;60.10;;;53.63;;
57989;SDS011;58373;51.824;5.564;2022-08-19T06:41:24;60.70;;;53.10;;
57989;SDS011;58373;51.824;5.564;2022-08-19T06:43:50;62.65;;;55.35;;
57989;SDS011;58373;51.824;5.564;2022-08-19T06:46:16;63.92;;;56.92;;
57989;SDS011;58373;51.824;5.564;2022-08-19T06:48:43;65.20;;;57.38;;
57989;SDS011;58373;51.824;5.564;2022-08-19T06:51:09;70.43;;;61.97;;
57989;SDS011;58373;51.824;5.564;2022-08-19T06:53:34;73.32;;;61.95;;
57989;SDS011;58373;51.824;5.564;2022-08-19T06:56:00;77.32;;;63.67;;
57989;SDS011;58373;51.824;5.564;2022-08-19T06:58:28;73.68;;;62.35;;
57989;SDS011;58373;51.824;5.564;2022-08-19T07:00:58;73.68;;;62.20;;
57989;SDS011;58373;51.824;5.564;2022-08-19T07:03:29;74.35;;;62.72;;
57989;SDS011;58373;51.824;5.564;2022-08-19T07:05:56;73.72;;;61.10;;
57989;SDS011;58373;51.824;5.564;2022-08-19T07:08:21;72.97;;;59.95;;
57989;SDS011;58373;51.824;5.564;2022-08-19T07:10:47;70.75;;;58.33;;
57989;SDS011;58373;51.824;5.564;2022-08-19T07:13:14;68.05;;;56.95;;
57989;SDS011;58373;51.824;5.564;2022-08-19T07:15:39;69.47;;;56.85;;
57989;SDS011;58373;51.824;5.564;2022-08-19T07:18:05;70.13;;;57.08;;
57989;SDS011;58373;51.824;5.564;2022-08-19T07:20:30;70.93;;;57.17;;
57989;SDS011;58373;51.824;5.564;2022-08-19T07:22:57;71.40;;;58.72;;
57989;SDS011;58373;51.824;5.564;2022-08-19T07:25:23;70.53;;;57.33;;
57989;SDS011;58373;51.824;5.564;2022-08-19T07:27:49;70.15;;;58.00;;
57989;SDS011;58373;51.824;5.564;2022-08-19T07:30:16;65.45;;;56.00;;
57989;SDS011;58373;51.824;5.564;2022-08-19T07:32:42;64.63;;;56.60;;
57989;SDS011;58373;51.824;5.564;2022-08-19T07:35:08;66.35;;;56.30;;
57989;SDS011;58373;51.824;5.564;2022-08-19T07:37:34;66.20;;;57.45;;
57989;SDS011;58373;51.824;5.564;2022-08-19T07:40:03;69.20;;;57.80;;
57989;SDS011;58373;51.824;5.564;2022-08-19T07:42:29;62.30;;;55.50;;
57989;SDS011;58373;51.824;5.564;2022-08-19T07:44:55;60.10;;;53.55;;
57989;SDS011;58373;51.824;5.564;2022-08-19T07:47:20;62.10;;;55.20;;
57989;SDS011;58373;51.824;5.564;2022-08-19T07:49:45;64.00;;;56.42;;
57989;SDS011;58373;51.824;5.564;2022-08-19T07:52:11;61.97;;;55.25;;
57989;SDS011;58373;51.824;5.564;2022-08-19T07:54:38;65.97;;;56.55;;
57989;SDS011;58373;51.824;5.564;2022-08-19T07:57:03;66.28;;;55.10;;
57989;SDS011;58373;51.824;5.564;2022-08-19T07:59:30;61.15;;;54.42;;
57989;SDS011;58373;51.824;5.564;2022-08-19T08:01:56;60.75;;;53.40;;
57989;SDS011;58373;51.824;5.564;2022-08-19T08:04:23;58.53;;;52.10;;
57989;SDS011;58373;51.824;5.564;2022-08-19T08:07:07;60.35;;;50.95;;
57989;SDS011;58373;51.824;5.564;2022-08-19T08:09:51;60.72;;;51.13;;
57989;SDS011;58373;51.824;5.564;2022-08-19T08:12:21;55.03;;;47.72;;
57989;SDS011;58373;51.824;5.564;2022-08-19T08:14:53;59.10;;;50.20;;
57989;SDS011;58373;51.824;5.564;2022-08-19T08:19:48;48.42;;;43.15;;
57989;SDS011;58373;51.824;5.564;2022-08-19T08:22:16;48.75;;;43.40;;
57989;SDS011;58373;51.824;5.564;2022-08-19T08:25:10;52.67;;;46.17;;
57989;SDS011;58373;51.824;5.564;2022-08-19T08:27:43;52.13;;;44.90;;
57989;SDS011;58373;51.824;5.564;2022-08-19T08:32:39;48.08;;;42.88;;
57989;SDS011;58373;51.824;5.564;2022-08-19T08:35:07;47.05;;;41.95;;
57989;SDS011;58373;51.824;5.564;2022-08-19T08:37:34;47.20;;;42.05;;
57989;SDS011;58373;51.824;5.564;2022-08-19T08:40:07;40.97;;;36.15;;
57989;SDS011;58373;51.824;5.564;2022-08-19T08:42:36;44.03;;;39.00;;
57989;SDS011;58373;51.824;5.564;2022-08-19T08:45:13;43.00;;;38.53;;
57989;SDS011;58373;51.824;5.564;2022-08-19T08:47:43;43.25;;;38.58;;
57989;SDS011;58373;51.824;5.564;2022-08-19T08:50:18;41.63;;;37.10;;
57989;SDS011;58373;51.824;5.564;2022-08-19T08:52:48;41.60;;;37.30;;
57989;SDS011;58373;51.824;5.564;2022-08-19T08:55:19;43.33;;;38.33;;
57989;SDS011;58373;51.824;5.564;2022-08-19T09:00:17;41.97;;;37.38;;
57989;SDS011;58373;51.824;5.564;2022-08-19T09:02:46;44.63;;;38.35;;
57989;SDS011;58373;51.824;5.564;2022-08-19T09:05:12;42.90;;;36.00;;
57989;SDS011;58373;51.824;5.564;2022-08-19T09:12:52;45.67;;;37.67;;
57989;SDS011;58373;51.824;5.564;2022-08-19T09:15:21;42.88;;;37.92;;
57989;SDS011;58373;51.824;5.564;2022-08-19T09:17:53;46.55;;;39.42;;
57989;SDS011;58373;51.824;5.564;2022-08-19T09:20:20;43.30;;;38.05;;
57989;SDS011;58373;51.824;5.564;2022-08-19T09:22:47;46.47;;;38.72;;
57989;SDS011;58373;51.824;5.564;2022-08-19T09:25:15;42.47;;;37.90;;
57989;SDS011;58373;51.824;5.564;2022-08-19T09:30:09;41.38;;;37.10;;
57989;SDS011;58373;51.824;5.564;2022-08-19T09:32:37;40.00;;;35.75;;
57989;SDS011;58373;51.824;5.564;2022-08-19T09:35:04;40.33;;;36.03;;
57989;SDS011;58373;51.824;5.564;2022-08-19T09:37:31;38.42;;;34.53;;
57989;SDS011;58373;51.824;5.564;2022-08-19T09:39:56;37.35;;;33.55;;
57989;SDS011;58373;51.824;5.564;2022-08-19T09:42:22;36.55;;;32.75;;
57989;SDS011;58373;51.824;5.564;2022-08-19T09:44:48;36.10;;;32.40;;
57989;SDS011;58373;51.824;5.564;2022-08-19T09:47:13;34.50;;;30.80;;
57989;SDS011;58373;51.824;5.564;2022-08-19T09:49:40;35.40;;;31.80;;
57989;SDS011;58373;51.824;5.564;2022-08-19T09:52:07;35.67;;;31.95;;
57989;SDS011;58373;51.824;5.564;2022-08-19T09:54:34;36.20;;;32.40;;
57989;SDS011;58373;51.824;5.564;2022-08-19T09:56:59;34.08;;;30.55;;
57989;SDS011;58373;51.824;5.564;2022-08-19T09:59:25;35.17;;;31.60;;
57989;SDS011;58373;51.824;5.564;2022-08-19T10:01:51;38.15;;;34.17;;
57989;SDS011;58373;51.824;5.564;2022-08-19T10:04:17;36.72;;;32.83;;
57989;SDS011;58373;51.824;5.564;2022-08-19T10:06:43;36.30;;;32.63;;
57989;SDS011;58373;51.824;5.564;2022-08-19T10:09:09;37.28;;;33.55;;
57989;SDS011;58373;51.824;5.564;2022-08-19T10:11:36;37.60;;;33.65;;
57989;SDS011;58373;51.824;5.564;2022-08-19T10:14:05;37.72;;;33.80;;
57989;SDS011;58373;51.824;5.564;2022-08-19T10:16:31;36.28;;;32.35;;
57989;SDS011;58373;51.824;5.564;2022-08-19T10:18:57;35.72;;;31.88;;
57989;SDS011;58373;51.824;5.564;2022-08-19T10:21:25;36.08;;;32.42;;
57989;SDS011;58373;51.824;5.564;2022-08-19T10:23:54;37.35;;;33.42;;
57989;SDS011;58373;51.824;5.564;2022-08-19T10:26:24;36.92;;;33.13;;
57989;SDS011;58373;51.824;5.564;2022-08-19T10:28:51;36.05;;;32.25;;
57989;SDS011;58373;51.824;5.564;2022-08-19T10:31:18;36.08;;;32.42;;
57989;SDS011;58373;51.824;5.564;2022-08-19T10:33:49;35.05;;;31.38;;
57989;SDS011;58373;51.824;5.564;2022-08-19T10:36:17;35.65;;;32.05;;
57989;SDS011;58373;51.824;5.564;2022-08-19T10:38:45;36.03;;;32.33;;
57989;SDS011;58373;51.824;5.564;2022-08-19T10:41:15;35.25;;;31.55;;
57989;SDS011;58373;51.824;5.564;2022-08-19T10:43:42;34.25;;;30.85;;
57989;SDS011;58373;51.824;5.564;2022-08-19T10:46:10;35.97;;;32.38;;
57989;SDS011;58373;51.824;5.564;2022-08-19T10:48:38;34.78;;;31.23;;
57989;SDS011;58373;51.824;5.564;2022-08-19T10:51:03;34.05;;;30.55;;
57989;SDS011;58373;51.824;5.564;2022-08-19T10:53:48;34.42;;;31.20;;
57989;SDS011;58373;51.824;5.564;2022-08-19T10:56:14;34.88;;;31.55;;
57989;SDS011;58373;51.824;5.564;2022-08-19T10:58:59;34.22;;;30.85;;
57989;SDS011;58373;51.824;5.564;2022-08-19T11:01:28;34.88;;;31.52;;
57989;SDS011;58373;51.824;5.564;2022-08-19T11:03:55;34.30;;;31.05;;
57989;SDS011;58373;51.824;5.564;2022-08-19T11:06:22;45.28;;;41.08;;
57989;SDS011;58373;51.824;5.564;2022-08-19T11:08:50;37.72;;;34.13;;
57989;SDS011;58373;51.824;5.564;2022-08-19T11:11:16;41.40;;;37.50;;
57989;SDS011;58373;51.824;5.564;2022-08-19T11:13:42;276.70;;;257.55;;
57989;SDS011;58373;51.824;5.564;2022-08-19T11:16:13;103.35;;;93.50;;
57989;SDS011;58373;51.824;5.564;2022-08-19T11:18:44;48.97;;;44.38;;
57989;SDS011;58373;51.824;5.564;2022-08-19T11:21:20;50.00;;;45.30;;
57989;SDS011;58373;51.824;5.564;2022-08-19T11:23:51;98.30;;;89.55;;
57989;SDS011;58373;51.824;5.564;2022-08-19T11:26:20;55.13;;;50.13;;
57989;SDS011;58373;51.824;5.564;2022-08-19T11:28:47;58.08;;;53.45;;
57989;SDS011;58373;51.824;5.564;2022-08-19T11:31:14;40.17;;;36.42;;
57989;SDS011;58373;51.824;5.564;2022-08-19T11:33:42;115.82;;;104.22;;
57989;SDS011;58373;51.824;5.564;2022-08-19T11:36:10;46.40;;;42.60;;
57989;SDS011;58373;51.824;5.564;2022-08-19T11:38:36;71.13;;;65.88;;
57989;SDS011;58373;51.824;5.564;2022-08-19T11:41:03;34.22;;;31.00;;
57989;SDS011;58373;51.824;5.564;2022-08-19T11:43:32;33.28;;;30.08;;
57989;SDS011;58373;51.824;5.564;2022-08-19T11:45:58;45.58;;;41.55;;
57989;SDS011;58373;51.824;5.564;2022-08-19T11:48:24;41.42;;;37.60;;
57989;SDS011;58373;51.824;5.564;2022-08-19T11:50:51;36.97;;;33.47;;
57989;SDS011;58373;51.824;5.564;2022-08-19T11:53:17;34.05;;;30.98;;
57989;SDS011;58373;51.824;5.564;2022-08-19T11:55:45;35.53;;;32.15;;
57989;SDS011;58373;51.824;5.564;2022-08-19T11:58:12;34.63;;;31.60;;
57989;SDS011;58373;51.824;5.564;2022-08-19T12:00:39;34.20;;;30.98;;
57989;SDS011;58373;51.824;5.564;2022-08-19T12:03:05;36.85;;;33.20;;
57989;SDS011;58373;51.824;5.564;2022-08-19T12:05:30;34.75;;;31.70;;
57989;SDS011;58373;51.824;5.564;2022-08-19T12:07:56;34.70;;;31.52;;
57989;SDS011;58373;51.824;5.564;2022-08-19T12:10:21;37.03;;;33.83;;
57989;SDS011;58373;51.824;5.564;2022-08-19T12:12:47;35.33;;;32.13;;
57989;SDS011;58373;51.824;5.564;2022-08-19T12:15:13;35.55;;;32.22;;
57989;SDS011;58373;51.824;5.564;2022-08-19T12:17:39;38.53;;;34.92;;
57989;SDS011;58373;51.824;5.564;2022-08-19T12:20:07;37.17;;;33.65;;
57989;SDS011;58373;51.824;5.564;2022-08-19T12:22:38;36.30;;;32.90;;
57989;SDS011;58373;51.824;5.564;2022-08-19T12:25:06;36.67;;;33.40;;
57989;SDS011;58373;51.824;5.564;2022-08-19T12:27:32;39.97;;;36.28;;
57989;SDS011;58373;51.824;5.564;2022-08-19T12:29:58;39.13;;;35.42;;
57989;SDS011;58373;51.824;5.564;2022-08-19T12:32:26;37.42;;;33.63;;
57989;SDS011;58373;51.824;5.564;2022-08-19T12:34:51;38.75;;;35.10;;
57989;SDS011;58373;51.824;5.564;2022-08-19T12:37:17;36.80;;;33.47;;
57989;SDS011;58373;51.824;5.564;2022-08-19T12:39:42;35.85;;;32.47;;
57989;SDS011;58373;51.824;5.564;2022-08-19T12:42:09;34.80;;;31.65;;
57989;SDS011;58373;51.824;5.564;2022-08-19T12:44:36;36.37;;;32.93;;
57989;SDS011;58373;51.824;5.564;2022-08-19T12:47:04;35.95;;;32.60;;
57989;SDS011;58373;51.824;5.564;2022-08-19T12:49:30;35.08;;;31.65;;
57989;SDS011;58373;51.824;5.564;2022-08-19T12:51:58;33.85;;;30.67;;
57989;SDS011;58373;51.824;5.564;2022-08-19T12:54:28;34.13;;;30.92;;
57989;SDS011;58373;51.824;5.564;2022-08-19T12:56:54;34.78;;;31.40;;
57989;SDS011;58373;51.824;5.564;2022-08-19T12:59:20;33.50;;;30.30;;
57989;SDS011;58373;51.824;5.564;2022-08-19T13:01:46;32.67;;;29.70;;
57989;SDS011;58373;51.824;5.564;2022-08-19T13:04:11;31.88;;;28.88;;
57989;SDS011;58373;51.824;5.564;2022-08-19T13:06:36;31.13;;;28.20;;
57989;SDS011;58373;51.824;5.564;2022-08-19T13:09:02;32.40;;;29.38;;
57989;SDS011;58373;51.824;5.564;2022-08-19T13:11:28;32.72;;;29.50;;
57989;SDS011;58373;51.824;5.564;2022-08-19T13:13:57;32.88;;;29.60;;
57989;SDS011;58373;51.824;5.564;2022-08-19T13:16:23;33.95;;;30.85;;
57989;SDS011;58373;51.824;5.564;2022-08-19T13:18:50;34.75;;;31.38;;
57989;SDS011;58373;51.824;5.564;2022-08-19T13:21:18;33.92;;;30.83;;
57989;SDS011;58373;51.824;5.564;2022-08-19T13:23:46;35.72;;;32.17;;
57989;SDS011;58373;51.824;5.564;2022-08-19T13:26:12;34.30;;;31.00;;
57989;SDS011;58373;51.824;5.564;2022-08-19T13:28:38;34.38;;;30.98;;
57989;SDS011;58373;51.824;5.564;2022-08-19T13:31:23;35.78;;;32.38;;
57989;SDS011;58373;51.824;5.564;2022-08-19T13:34:09;35.60;;;32.22;;
57989;SDS011;58373;51.824;5.564;2022-08-19T13:36:35;34.10;;;30.73;;
57989;SDS011;58373;51.824;5.564;2022-08-19T13:39:02;35.03;;;31.42;;
57989;SDS011;58373;51.824;5.564;2022-08-19T13:41:28;35.17;;;31.75;;
57989;SDS011;58373;51.824;5.564;2022-08-19T13:43:53;35.58;;;32.03;;
57989;SDS011;58373;51.824;5.564;2022-08-19T13:46:20;34.63;;;31.25;;
57989;SDS011;58373;51.824;5.564;2022-08-19T13:48:46;28.13;;;25.42;;
57989;SDS011;58373;51.824;5.564;2022-08-19T13:51:13;22.77;;;20.38;;
57989;SDS011;58373;51.824;5.564;2022-08-19T13:53:41;21.55;;;19.25;;
57989;SDS011;58373;51.824;5.564;2022-08-19T13:56:08;18.00;;;16.20;;
57989;SDS011;58373;51.824;5.564;2022-08-19T13:58:36;15.10;;;13.60;;
57989;SDS011;58373;51.824;5.564;2022-08-19T14:01:02;14.45;;;13.05;;
57989;SDS011;58373;51.824;5.564;2022-08-19T14:03:29;15.95;;;14.40;;
57989;SDS011;58373;51.824;5.564;2022-08-19T14:05:55;21.20;;;18.92;;
57989;SDS011;58373;51.824;5.564;2022-08-19T14:08:21;27.52;;;24.92;;
57989;SDS011;58373;51.824;5.564;2022-08-19T14:10:47;32.72;;;29.45;;
57989;SDS011;58373;51.824;5.564;2022-08-19T14:13:14;35.88;;;32.30;;
57989;SDS011;58373;51.824;5.564;2022-08-19T14:15:42;38.20;;;34.65;;
57989;SDS011;58373;51.824;5.564;2022-08-19T14:18:08;43.15;;;39.17;;
57989;SDS011;58373;51.824;5.564;2022-08-19T14:20:34;40.53;;;36.83;;
57989;SDS011;58373;51.824;5.564;2022-08-19T14:23:00;37.53;;;33.95;;
57989;SDS011;58373;51.824;5.564;2022-08-19T14:25:26;34.13;;;30.77;;
57989;SDS011;58373;51.824;5.564;2022-08-19T14:27:53;26.90;;;24.20;;
57989;SDS011;58373;51.824;5.564;2022-08-19T14:30:21;21.52;;;19.45;;
57989;SDS011;58373;51.824;5.564;2022-08-19T14:32:53;17.83;;;16.05;;
57989;SDS011;58373;51.824;5.564;2022-08-19T14:35:20;17.13;;;15.45;;
57989;SDS011;58373;51.824;5.564;2022-08-19T14:37:49;17.08;;;15.38;;
57989;SDS011;58373;51.824;5.564;2022-08-19T14:40:16;17.92;;;16.23;;
57989;SDS011;58373;51.824;5.564;2022-08-19T14:42:45;17.73;;;16.02;;
57989;SDS011;58373;51.824;5.564;2022-08-19T14:45:11;18.13;;;16.05;;
57989;SDS011;58373;51.824;5.564;2022-08-19T14:47:37;17.58;;;15.77;;
57989;SDS011;58373;51.824;5.564;2022-08-19T14:50:04;15.93;;;14.23;;